createdAt,value
2023-03-15T00:03:07.993Z,73.13
2023-03-15T00:08:12.572Z,64.15
2023-03-15T00:13:16.566Z,64.07
2023-03-15T00:18:20.551Z,52.10
2023-03-15T00:23:24.717Z,52.50
2023-03-15T00:28:27.397Z,48.97
2023-03-15T00:33:34.584Z,47.17
2023-03-15T00:38:40.240Z,47.13
2023-03-15T00:43:43.299Z,40.30
2023-03-15T00:48:49.028Z,46.72
2023-03-15T00:53:54.002Z,38.05
2023-03-15T00:58:58.166Z,35.42
2023-03-15T01:04:01.309Z,31.88
2023-03-15T01:09:05.730Z,32.47
2023-03-15T01:14:09.108Z,27.60
2023-03-15T01:19:13.237Z,28.25
2023-03-15T01:24:17.306Z,27.40
2023-03-15T01:29:19.939Z,26.00
2023-03-15T01:34:22.795Z,24.27
2023-03-15T01:39:27.034Z,23.83
2023-03-15T01:44:49.521Z,23.23
2023-03-15T01:49:56.685Z,22.83
2023-03-15T01:55:02.417Z,20.77
2023-03-15T02:00:11.792Z,20.92
2023-03-15T02:05:28.383Z,20.65
2023-03-15T02:10:36.796Z,18.95
2023-03-15T02:15:46.763Z,23.50
2023-03-15T02:21:00.350Z,19.42
2023-03-15T02:26:12.143Z,19.90
2023-03-15T02:31:17.978Z,15.38
2023-03-15T02:36:22.728Z,15.77
2023-03-15T02:41:28.464Z,17.38
2023-03-15T02:46:32.443Z,18.05
2023-03-15T02:51:35.552Z,15.25
2023-03-15T02:56:38.333Z,13.13
2023-03-15T03:01:45.696Z,15.65
2023-03-15T03:06:48.680Z,14.13
2023-03-15T03:11:56.893Z,13.13
2023-03-15T03:17:01.578Z,11.18
2023-03-15T03:22:04.515Z,10.68
2023-03-15T03:27:07.426Z,11.63
2023-03-15T03:32:14.554Z,11.02
2023-03-15T03:37:18.430Z,10.70
2023-03-15T03:42:32.596Z,10.05
2023-03-15T03:47:36.611Z,11.25
2023-03-15T03:52:39.403Z,12.43
2023-03-15T03:57:46.559Z,8.75
2023-03-15T04:02:59.116Z,9.55
2023-03-15T04:08:01.866Z,8.43
2023-03-15T04:13:09.364Z,8.88
2023-03-15T04:18:13.635Z,8.00
2023-03-15T04:23:19.053Z,8.00
2023-03-15T04:28:38.080Z,8.73
2023-03-15T04:34:11.513Z,7.72
2023-03-15T04:39:32.936Z,7.85
2023-03-15T04:44:54.737Z,9.27
2023-03-15T04:50:31.632Z,8.75
2023-03-15T04:55:43.389Z,7.72
2023-03-15T05:00:53.744Z,8.18
2023-03-15T05:06:08.005Z,6.68
2023-03-15T05:11:33.916Z,6.28
2023-03-15T05:16:47.742Z,5.32
2023-03-15T05:21:57.809Z,7.78
2023-03-15T05:27:13.534Z,6.50
2023-03-15T05:32:35.530Z,6.40
2023-03-15T05:37:56.428Z,5.30
2023-03-15T05:43:09.847Z,6.32
2023-03-15T05:48:32.792Z,6.45
2023-03-15T05:54:05.672Z,4.93
2023-03-15T05:59:14.192Z,4.22
2023-03-15T06:04:49.242Z,4.57
2023-03-15T06:09:57.636Z,7.10
2023-03-15T06:15:01.717Z,5.20
2023-03-15T06:20:05.376Z,4.95
2023-03-15T06:25:11.121Z,3.95
2023-03-15T06:30:16.957Z,4.68
2023-03-15T06:35:21.039Z,5.00
2023-03-15T06:40:25.175Z,8.38
2023-03-15T06:45:28.475Z,6.13
2023-03-15T06:50:46.100Z,5.28
2023-03-15T06:55:52.117Z,2.85
2023-03-15T07:00:54.820Z,3.63
2023-03-15T07:05:57.473Z,3.72
2023-03-15T07:11:01.756Z,2.60
2023-03-15T07:16:04.753Z,3.55
2023-03-15T07:21:08.131Z,3.70
2023-03-15T07:26:12.201Z,2.97
2023-03-15T07:31:15.159Z,2.65
2023-03-15T07:36:17.814Z,2.83
2023-03-15T07:41:22.198Z,3.70
2023-03-15T07:46:34.150Z,2.40
2023-03-15T07:51:36.842Z,3.38
2023-03-15T07:56:40.869Z,2.53
2023-03-15T08:01:43.580Z,2.92
2023-03-15T08:06:46.236Z,3.00
2023-03-15T08:11:50.285Z,2.80
2023-03-15T08:16:53.184Z,3.08
2023-03-15T08:21:55.823Z,3.92
2023-03-15T08:26:59.857Z,4.10
2023-03-15T08:32:03.186Z,5.78
2023-03-15T08:37:05.932Z,3.65
2023-03-15T08:42:10.542Z,4.93
2023-03-15T08:47:13.239Z,4.00
2023-03-15T08:52:40.800Z,6.03
2023-03-15T08:57:44.949Z,3.72
2023-03-15T09:02:49.007Z,4.10
2023-03-15T09:07:52.990Z,5.90
2023-03-15T09:12:57.126Z,4.93
2023-03-15T09:17:59.785Z,4.03
2023-03-15T09:23:02.523Z,5.38
2023-03-15T09:28:07.620Z,5.50
2023-03-15T09:33:14.568Z,4.82
2023-03-15T09:38:17.747Z,2.80
2023-03-15T09:43:51.789Z,3.65
2023-03-15T09:48:56.604Z,3.88
2023-03-15T09:54:01.613Z,3.17
2023-03-15T09:59:06.133Z,4.38
2023-03-15T10:04:12.444Z,3.58
2023-03-15T10:09:19.358Z,4.80
2023-03-15T10:14:29.086Z,3.72
2023-03-15T10:19:38.836Z,3.45
2023-03-15T10:24:47.672Z,4.00
2023-03-15T10:30:40.590Z,3.97
2023-03-15T10:36:29.300Z,4.28
2023-03-15T10:48:00.247Z,3.58
2023-03-15T10:54:28.520Z,3.03
2023-03-15T11:00:06.564Z,3.83
2023-03-15T11:05:17.647Z,2.30
2023-03-15T11:10:23.240Z,4.38
2023-03-15T11:15:27.263Z,3.80
2023-03-15T11:20:31.870Z,3.28
2023-03-15T11:25:34.586Z,3.42
2023-03-15T11:30:40.316Z,3.00
2023-03-15T11:35:48.070Z,3.78
2023-03-15T11:40:56.624Z,5.05
2023-03-15T11:46:03.001Z,4.57
2023-03-15T11:51:17.008Z,4.75
2023-03-15T11:56:25.353Z,5.57
2023-03-15T12:01:29.406Z,6.93
2023-03-15T12:06:38.484Z,6.88
2023-03-15T12:11:42.635Z,10.35
2023-03-15T12:16:47.662Z,9.52
2023-03-15T12:21:52.152Z,10.00
2023-03-15T12:27:01.605Z,12.93
2023-03-15T12:32:13.533Z,11.18
2023-03-15T12:37:19.584Z,11.82
2023-03-15T12:43:08.603Z,10.27
2023-03-15T12:48:26.135Z,10.43
2023-03-15T12:53:43.944Z,10.20
2023-03-15T12:58:48.400Z,9.30
2023-03-15T13:03:55.936Z,13.02
2023-03-15T13:09:03.205Z,9.38
2023-03-15T13:14:13.120Z,10.95
2023-03-15T13:19:22.811Z,10.90
2023-03-15T13:24:32.686Z,9.73
2023-03-15T13:29:35.518Z,8.10
2023-03-15T13:34:39.622Z,11.20
2023-03-15T13:39:54.979Z,8.93
2023-03-15T13:45:18.801Z,9.30
2023-03-15T13:50:22.977Z,9.70
2023-03-15T13:55:25.690Z,9.20
2023-03-15T14:00:28.561Z,8.77
2023-03-15T14:05:34.685Z,8.73
2023-03-15T14:10:38.467Z,7.22
2023-03-15T14:15:44.298Z,7.78
2023-03-15T14:20:54.194Z,8.15
2023-03-15T14:26:01.045Z,8.18
2023-03-15T14:31:04.326Z,7.90
2023-03-15T14:36:12.754Z,7.70
2023-03-15T14:41:26.325Z,7.60
2023-03-15T14:46:29.300Z,10.43
2023-03-15T14:51:33.640Z,9.70
2023-03-15T14:56:37.685Z,10.70
2023-03-15T15:01:42.036Z,12.15
2023-03-15T15:06:51.415Z,10.20
2023-03-15T15:11:54.746Z,8.48
2023-03-15T15:16:57.468Z,12.25
2023-03-15T15:22:01.617Z,11.30
2023-03-15T15:27:04.251Z,9.27
2023-03-15T15:32:07.590Z,7.55
2023-03-15T15:37:12.146Z,8.38
2023-03-15T15:42:14.836Z,10.00
2023-03-15T15:47:17.573Z,10.93
2023-03-15T15:52:22.731Z,6.45
2023-03-15T15:57:26.596Z,10.02
2023-03-15T16:02:29.344Z,7.28
2023-03-15T16:07:33.460Z,6.50
2023-03-15T16:12:36.229Z,8.93
2023-03-15T16:17:38.855Z,11.43
2023-03-15T16:22:44.437Z,8.90
2023-03-15T16:27:47.121Z,13.40
2023-03-15T16:32:49.970Z,15.70
2023-03-15T16:37:57.148Z,16.10
2023-03-15T16:42:59.855Z,14.18
2023-03-15T16:48:02.525Z,21.85
2023-03-15T16:53:08.627Z,24.42
2023-03-15T16:58:16.193Z,14.73
2023-03-15T17:03:18.956Z,12.75
2023-03-15T17:08:23.742Z,11.90
2023-03-15T17:13:51.942Z,13.88
2023-03-15T17:18:54.609Z,13.32
2023-03-15T17:23:58.706Z,13.05
2023-03-15T17:29:01.939Z,10.07
2023-03-15T17:34:04.666Z,10.93
2023-03-15T17:39:10.457Z,7.53
2023-03-15T17:44:17.704Z,9.13
2023-03-15T17:49:20.877Z,12.15
2023-03-15T17:54:25.334Z,11.40
2023-03-15T17:59:51.285Z,12.70
2023-03-15T18:05:17.720Z,8.98
2023-03-15T18:10:23.768Z,10.20
2023-03-15T18:15:26.530Z,10.73
2023-03-15T18:31:31.856Z,11.00
2023-03-15T18:36:34.644Z,7.47
2023-03-15T18:41:37.296Z,9.60
2023-03-15T18:46:43.847Z,10.32
2023-03-15T18:51:46.552Z,6.65
2023-03-15T18:56:49.533Z,7.30
2023-03-15T19:03:01.949Z,5.85
2023-03-15T19:08:06.234Z,5.53
2023-03-15T19:14:08.889Z,5.97
2023-03-15T19:19:11.610Z,8.63
2023-03-15T19:24:15.666Z,10.43
2023-03-15T19:29:18.367Z,14.05
2023-03-15T19:34:21.103Z,12.98
2023-03-15T19:39:25.132Z,12.02
2023-03-15T19:44:30.555Z,10.98
2023-03-15T19:49:33.288Z,10.52
2023-03-15T19:54:38.439Z,10.93
2023-03-15T19:59:41.624Z,9.88
2023-03-15T20:05:01.560Z,9.93
2023-03-15T20:10:08.347Z,10.98
2023-03-15T20:16:26.572Z,11.15
2023-03-15T20:21:29.934Z,8.68
2023-03-15T20:26:34.007Z,10.90
2023-03-15T20:31:55.743Z,9.32
2023-03-15T20:36:58.448Z,9.23
2023-03-15T20:42:07.388Z,9.20
2023-03-15T20:47:10.195Z,10.85
2023-03-15T20:52:13.041Z,8.80
2023-03-15T20:57:17.106Z,8.93
2023-03-15T21:02:19.926Z,9.60
2023-03-15T21:07:22.694Z,8.93
2023-03-15T21:18:35.939Z,9.10
2023-03-15T21:24:05.649Z,10.35
2023-03-15T21:29:08.349Z,9.35
2023-03-15T21:34:12.382Z,8.90
2023-03-15T21:39:15.152Z,8.05
2023-03-15T21:50:34.516Z,9.95
2023-03-15T22:02:16.677Z,8.18
2023-03-15T22:07:20.719Z,7.75
2023-03-15T22:12:25.318Z,8.05
2023-03-15T22:17:29.277Z,7.18
2023-03-15T22:22:33.387Z,7.13
2023-03-15T22:27:36.106Z,7.68
2023-03-15T22:32:38.865Z,7.28
2023-03-15T22:37:43.080Z,7.40
2023-03-15T22:42:46.828Z,8.95
2023-03-15T22:48:00.999Z,6.45
2023-03-15T22:53:05.036Z,6.85
2023-03-15T22:58:07.702Z,6.50
2023-03-15T23:03:10.400Z,6.82
2023-03-15T23:08:14.433Z,6.50
2023-03-15T23:13:17.390Z,6.22
2023-03-15T23:18:20.104Z,6.70
2023-03-15T23:23:25.314Z,6.57
2023-03-15T23:28:28.038Z,6.10
2023-03-15T23:33:33.911Z,5.63
2023-03-15T23:38:37.930Z,5.65
2023-03-15T23:43:41.551Z,6.65
2023-03-15T23:48:44.323Z,6.72
2023-03-15T23:53:48.349Z,5.95
2023-03-15T23:58:51.006Z,7.10
